createdAt,value
2018-08-03T00:01:50.848Z,23.90
2018-08-03T00:04:19.007Z,23.80
2018-08-03T00:06:47.183Z,23.70
2018-08-03T00:09:16.283Z,23.70
2018-08-03T00:11:44.443Z,23.60
2018-08-03T00:14:12.599Z,23.60
2018-08-03T00:16:40.795Z,23.60
2018-08-03T00:19:08.987Z,23.60
2018-08-03T00:21:37.160Z,23.50
2018-08-03T00:24:05.328Z,23.40
2018-08-03T00:29:01.452Z,23.40
2018-08-03T00:31:29.676Z,23.50
2018-08-03T00:33:57.851Z,23.40
2018-08-03T00:36:26.004Z,23.30
2018-08-03T00:38:54.176Z,23.30
2018-08-03T00:41:22.504Z,23.30
2018-08-03T00:43:50.787Z,23.30
2018-08-03T00:46:19.232Z,23.20
2018-08-03T00:48:47.540Z,23.20
2018-08-03T00:51:16.632Z,23.10
2018-08-03T00:53:44.852Z,23.00
2018-08-03T00:56:13.020Z,23.10
2018-08-03T00:58:41.183Z,22.90
2018-08-03T01:01:09.356Z,22.80
2018-08-03T01:06:05.777Z,22.80
2018-08-03T01:08:33.960Z,22.80
2018-08-03T01:11:02.144Z,22.70
2018-08-03T01:13:30.306Z,22.70
2018-08-03T01:15:58.704Z,22.70
2018-08-03T01:18:26.896Z,22.80
2018-08-03T01:20:55.453Z,22.80
2018-08-03T01:23:23.652Z,22.80
2018-08-03T01:25:51.837Z,22.70
2018-08-03T01:28:19.981Z,22.70
2018-08-03T01:30:48.175Z,22.70
2018-08-03T01:33:16.872Z,22.60
2018-08-03T01:35:45.049Z,22.70
2018-08-03T01:38:13.276Z,22.60
2018-08-03T01:40:41.445Z,22.60
2018-08-03T01:43:09.616Z,22.50
2018-08-03T01:45:37.852Z,22.60
2018-08-03T01:48:06.080Z,22.60
2018-08-03T01:50:34.248Z,22.50
2018-08-03T01:53:02.431Z,22.50
2018-08-03T01:55:30.605Z,22.50
2018-08-03T01:57:58.792Z,22.40
2018-08-03T02:00:26.949Z,22.30
2018-08-03T02:02:55.117Z,22.30
2018-08-03T02:07:51.285Z,22.20
2018-08-03T02:10:19.501Z,22.20
2018-08-03T02:12:47.654Z,22.10
2018-08-03T02:15:15.878Z,22.10
2018-08-03T02:17:44.034Z,22.10
2018-08-03T02:20:12.214Z,22.10
2018-08-03T02:22:40.386Z,22.20
2018-08-03T02:25:08.562Z,22.10
2018-08-03T02:27:36.734Z,22.10
2018-08-03T02:30:05.379Z,22.00
2018-08-03T02:32:33.642Z,22.00
2018-08-03T02:35:01.830Z,22.00
2018-08-03T02:37:30.014Z,22.00
2018-08-03T02:39:58.210Z,22.00
2018-08-03T02:42:26.414Z,22.00
2018-08-03T02:44:54.598Z,22.00
2018-08-03T02:47:22.794Z,22.00
2018-08-03T02:49:51.030Z,22.00
2018-08-03T02:52:19.230Z,22.00
2018-08-03T02:54:47.477Z,21.90
2018-08-03T02:57:15.635Z,21.80
2018-08-03T02:59:43.825Z,21.70
2018-08-03T03:02:12.035Z,21.70
2018-08-03T03:04:40.178Z,21.60
2018-08-03T03:07:08.359Z,21.60
2018-08-03T03:09:36.518Z,21.60
2018-08-03T03:12:04.706Z,21.50
2018-08-03T03:14:33.439Z,21.60
2018-08-03T03:17:01.619Z,21.60
2018-08-03T03:19:29.818Z,21.50
2018-08-03T03:21:57.966Z,21.50
2018-08-03T03:24:26.118Z,21.50
2018-08-03T03:26:54.315Z,21.60
2018-08-03T03:29:22.502Z,21.50
2018-08-03T03:31:50.707Z,21.50
2018-08-03T03:34:18.871Z,21.60
2018-08-03T03:36:47.026Z,21.60
2018-08-03T03:39:15.250Z,21.50
2018-08-03T03:41:43.451Z,21.50
2018-08-03T03:44:11.646Z,21.50
2018-08-03T03:46:39.798Z,21.50
2018-08-03T03:49:07.951Z,21.50
2018-08-03T03:54:04.194Z,21.40
2018-08-03T03:56:32.436Z,21.40
2018-08-03T03:59:00.739Z,21.40
2018-08-03T04:01:28.913Z,21.40
2018-08-03T04:03:57.123Z,21.40
2018-08-03T04:06:25.405Z,21.50
2018-08-03T04:08:53.582Z,21.50
2018-08-03T04:11:21.762Z,21.50
2018-08-03T04:13:49.943Z,21.40
2018-08-03T04:16:18.308Z,21.40
2018-08-03T04:18:46.498Z,21.50
2018-08-03T04:21:14.683Z,21.50
2018-08-03T04:23:42.907Z,21.50
2018-08-03T04:26:11.067Z,21.50
2018-08-03T04:28:39.339Z,21.40
2018-08-03T04:31:07.512Z,21.40
2018-08-03T04:33:35.711Z,21.40
2018-08-03T04:36:03.966Z,21.40
2018-08-03T04:38:32.159Z,21.40
2018-08-03T04:41:00.431Z,21.40
2018-08-03T04:43:28.617Z,21.40
2018-08-03T04:45:56.794Z,21.40
2018-08-03T04:48:25.075Z,21.40
2018-08-03T04:50:53.251Z,21.40
2018-08-03T04:53:21.431Z,21.40
2018-08-03T04:55:49.627Z,21.30
2018-08-03T04:58:18.578Z,21.30
2018-08-03T05:00:46.803Z,21.40
2018-08-03T05:03:15.038Z,21.40
2018-08-03T05:05:43.292Z,21.40
2018-08-03T05:08:11.559Z,21.40
2018-08-03T05:10:39.729Z,21.60
2018-08-03T05:15:35.970Z,21.80
2018-08-03T05:18:04.239Z,21.90
2018-08-03T05:20:32.426Z,22.00
2018-08-03T05:23:00.835Z,22.00
2018-08-03T05:25:29.003Z,22.00
2018-08-03T05:27:57.172Z,22.00
2018-08-03T05:30:25.407Z,22.10
2018-08-03T05:32:53.520Z,22.20
2018-08-03T05:35:21.777Z,22.40
2018-08-03T05:37:49.943Z,22.50
2018-08-03T05:40:19.088Z,22.70
2018-08-03T05:42:47.407Z,22.70
2018-08-03T05:45:19.085Z,22.90
2018-08-03T05:47:47.296Z,22.90
2018-08-03T05:50:16.532Z,23.00
2018-08-03T05:52:44.740Z,23.10
2018-08-03T05:55:12.936Z,23.20
2018-08-03T05:57:41.140Z,23.40
2018-08-03T06:00:09.342Z,23.40
2018-08-03T06:02:37.596Z,23.50
2018-08-03T06:05:06.528Z,23.60
2018-08-03T06:07:34.773Z,23.70
2018-08-03T06:12:31.240Z,24.10
2018-08-03T06:14:59.405Z,24.20
2018-08-03T06:17:27.619Z,24.30
2018-08-03T06:22:23.772Z,24.50
2018-08-03T06:24:51.981Z,24.50
2018-08-03T06:29:48.184Z,24.50
2018-08-03T06:32:16.428Z,24.70
2018-08-03T06:34:44.706Z,24.80
2018-08-03T06:37:12.973Z,25.00
2018-08-03T06:39:41.201Z,25.20
2018-08-03T06:42:09.408Z,25.30
2018-08-03T06:44:37.709Z,25.60
2018-08-03T06:47:05.921Z,25.70
2018-08-03T06:49:34.192Z,25.90
2018-08-03T06:52:02.457Z,26.00
2018-08-03T06:54:30.630Z,26.10
2018-08-03T06:56:58.794Z,26.10
2018-08-03T06:59:27.010Z,26.30
2018-08-03T07:01:55.126Z,26.40
2018-08-03T07:04:23.322Z,26.50
2018-08-03T07:06:51.501Z,26.80
2018-08-03T07:09:19.689Z,26.90
2018-08-03T07:11:47.873Z,27.00
2018-08-03T07:14:16.142Z,27.10
2018-08-03T07:16:44.335Z,27.10
2018-08-03T07:19:12.582Z,27.30
2018-08-03T07:21:41.573Z,27.40
2018-08-03T07:24:09.827Z,27.50
2018-08-03T07:26:37.995Z,27.70
2018-08-03T07:29:06.163Z,27.90
2018-08-03T07:31:34.381Z,28.00
2018-08-03T07:34:02.518Z,28.20
2018-08-03T07:36:30.678Z,28.40
2018-08-03T07:38:58.906Z,28.50
2018-08-03T07:41:27.118Z,28.50
2018-08-03T07:43:55.317Z,28.60
2018-08-03T07:46:23.709Z,28.70
2018-08-03T07:48:51.894Z,28.80
2018-08-03T07:51:20.122Z,28.80
2018-08-03T07:53:48.474Z,29.00
2018-08-03T07:56:16.687Z,29.20
2018-08-03T07:58:44.911Z,29.30
2018-08-03T08:01:13.095Z,29.40
2018-08-03T08:03:41.266Z,29.60
2018-08-03T08:06:09.465Z,29.80
2018-08-03T08:08:37.706Z,29.90
2018-08-03T08:11:05.900Z,30.20
2018-08-03T08:13:34.082Z,30.30
2018-08-03T08:16:02.358Z,30.40
2018-08-03T08:18:30.551Z,30.60
2018-08-03T08:30:50.695Z,30.80
2018-08-03T08:33:18.859Z,31.20
2018-08-03T08:35:47.034Z,31.40
2018-08-03T08:38:15.264Z,31.50
2018-08-03T08:40:43.475Z,31.60
2018-08-03T08:43:11.716Z,31.60
2018-08-03T08:45:39.939Z,31.60
2018-08-03T08:48:08.243Z,31.70
2018-08-03T08:50:36.447Z,31.80
2018-08-03T08:53:04.680Z,31.90
2018-08-03T08:55:32.903Z,32.10
2018-08-03T08:58:01.072Z,32.40
2018-08-03T09:00:29.311Z,32.30
2018-08-03T09:02:57.472Z,32.50
2018-08-03T09:05:25.740Z,32.70
2018-08-03T09:07:53.998Z,32.80
2018-08-03T09:10:22.176Z,33.10
2018-08-03T09:12:50.502Z,33.40
2018-08-03T09:15:18.670Z,33.50
2018-08-03T09:17:46.857Z,33.70
2018-08-03T09:20:15.077Z,33.80
2018-08-03T09:22:43.280Z,34.00
2018-08-03T09:25:11.533Z,34.00
2018-08-03T09:27:39.739Z,34.20
2018-08-03T09:30:08.993Z,34.20
2018-08-03T09:35:05.490Z,34.00
2018-08-03T09:37:33.957Z,34.10
2018-08-03T09:40:02.166Z,34.20
2018-08-03T09:42:30.661Z,34.30
2018-08-03T09:44:58.881Z,34.30
2018-08-03T09:47:27.333Z,34.30
2018-08-03T09:49:55.685Z,34.60
2018-08-03T09:52:23.932Z,34.80
2018-08-03T09:54:52.205Z,34.90
2018-08-03T09:57:20.854Z,34.70
2018-08-03T09:59:49.061Z,34.90
2018-08-03T10:02:17.286Z,34.80
2018-08-03T10:04:45.554Z,34.80
2018-08-03T10:07:13.824Z,34.90
2018-08-03T10:09:41.972Z,35.00
2018-08-03T10:12:10.222Z,35.10
2018-08-03T10:14:38.408Z,35.10
2018-08-03T10:17:06.614Z,34.90
2018-08-03T10:19:34.985Z,35.10
2018-08-03T10:22:03.194Z,35.50
2018-08-03T10:24:31.393Z,35.70
2018-08-03T10:26:59.565Z,35.60
2018-08-03T10:29:27.821Z,35.60
2018-08-03T10:31:56.086Z,35.70
2018-08-03T10:34:24.306Z,35.70
2018-08-03T10:36:52.493Z,35.80
2018-08-03T10:39:21.136Z,36.10
2018-08-03T10:41:49.373Z,36.30
2018-08-03T10:44:17.585Z,36.00
2018-08-03T10:46:45.810Z,36.00
2018-08-03T10:49:14.018Z,36.10
2018-08-03T10:51:42.211Z,36.20
2018-08-03T10:54:11.390Z,36.40
2018-08-03T10:56:39.614Z,36.50
2018-08-03T10:59:07.793Z,36.50
2018-08-03T11:01:36.055Z,36.40
2018-08-03T11:04:04.224Z,36.20
2018-08-03T11:06:32.774Z,36.30
2018-08-03T11:09:00.986Z,36.70
2018-08-03T11:11:29.203Z,36.60
2018-08-03T11:13:57.726Z,36.70
2018-08-03T11:16:25.873Z,36.90
2018-08-03T11:18:54.066Z,37.10
2018-08-03T11:21:22.234Z,37.50
2018-08-03T11:23:50.447Z,37.50
2018-08-03T11:26:18.666Z,37.70
2018-08-03T11:28:47.174Z,37.80
2018-08-03T11:31:15.343Z,37.80
2018-08-03T11:33:43.547Z,37.40
2018-08-03T11:36:11.790Z,37.70
2018-08-03T11:38:40.027Z,37.90
2018-08-03T11:41:08.216Z,38.10
2018-08-03T11:43:36.518Z,38.00
2018-08-03T11:46:04.755Z,37.80
2018-08-03T11:48:32.948Z,38.00
2018-08-03T11:51:01.147Z,38.30
2018-08-03T11:53:29.348Z,38.00
2018-08-03T11:55:57.551Z,38.00
2018-08-03T11:58:25.781Z,38.10
2018-08-03T12:00:53.993Z,38.00
2018-08-03T12:03:22.170Z,38.20
2018-08-03T12:05:50.361Z,38.40
2018-08-03T12:08:19.623Z,38.50
2018-08-03T12:10:47.799Z,38.50
2018-08-03T12:13:15.995Z,38.70
2018-08-03T12:15:44.807Z,38.80
2018-08-03T12:18:14.835Z,39.00
2018-08-03T12:20:44.363Z,38.70
2018-08-03T12:23:12.660Z,38.80
2018-08-03T12:25:40.920Z,38.70
2018-08-03T12:28:09.147Z,38.60
2018-08-03T12:30:37.348Z,38.80
2018-08-03T12:33:05.551Z,39.10
2018-08-03T12:35:33.739Z,39.30
2018-08-03T12:38:01.976Z,39.10
2018-08-03T12:40:30.224Z,39.00
2018-08-03T12:42:58.455Z,38.80
2018-08-03T12:45:33.837Z,38.60
2018-08-03T12:47:54.860Z,38.80
2018-08-03T12:50:23.084Z,38.70
2018-08-03T12:52:51.385Z,38.80
2018-08-03T12:55:19.532Z,39.00
2018-08-03T12:57:47.769Z,38.90
2018-08-03T13:00:16.025Z,38.80
2018-08-03T13:02:44.279Z,38.20
2018-08-03T13:05:12.492Z,38.50
2018-08-03T13:07:40.806Z,38.60
2018-08-03T13:10:09.005Z,38.90
2018-08-03T13:12:37.502Z,38.50
2018-08-03T13:15:06.124Z,38.50
2018-08-03T13:17:34.431Z,38.40
2018-08-03T13:20:02.941Z,38.40
2018-08-03T13:22:31.241Z,38.10
2018-08-03T13:24:59.460Z,38.20
2018-08-03T13:27:27.720Z,38.40
2018-08-03T13:29:55.985Z,38.40
2018-08-03T13:32:24.192Z,38.40
2018-08-03T13:34:52.420Z,38.60
2018-08-03T13:37:20.657Z,38.70
2018-08-03T13:39:48.852Z,38.60
2018-08-03T13:42:17.469Z,38.50
2018-08-03T14:24:18.107Z,37.30
2018-08-03T14:26:46.438Z,37.40
2018-08-03T14:29:14.722Z,37.70
2018-08-03T14:31:42.996Z,37.90
2018-08-03T14:34:11.337Z,38.10
2018-08-03T14:36:39.602Z,38.10
2018-08-03T14:39:09.090Z,38.10
2018-08-03T14:41:37.771Z,38.10
2018-08-03T14:44:06.625Z,38.20
2018-08-03T14:46:34.892Z,38.20
2018-08-03T14:49:03.111Z,38.40
2018-08-03T14:51:31.418Z,38.20
2018-08-03T14:53:59.665Z,37.70
2018-08-03T14:56:28.110Z,37.50
2018-08-03T14:58:56.375Z,37.40
2018-08-03T15:01:24.646Z,37.20
2018-08-03T15:03:53.251Z,36.80
2018-08-03T15:06:21.530Z,36.70
2018-08-03T15:08:49.762Z,36.70
2018-08-03T15:11:18.087Z,36.70
2018-08-03T15:13:46.414Z,36.40
2018-08-03T15:21:10.623Z,36.20
2018-08-03T15:23:38.863Z,35.90
2018-08-03T15:26:07.167Z,35.80
2018-08-03T15:28:35.354Z,35.90
2018-08-03T15:31:03.667Z,36.00
2018-08-03T15:50:49.024Z,35.90
2018-08-03T15:53:17.235Z,35.70
